Time;durP1;ratioP1;P1;durP2;ratioP2;P2;SDS_P1;SDS_P2;PMS_P1;PMS_P2;Temp;Humidity;BMP_temperature;BMP_pressure;BME280_temperature;BME280_humidity;BME280_pressure;Samples;Min_cycle;Max_cycle;Signal;HPM_P1;HPM_P2
2022/11/10 00:00:09;;;;;;;;;;;;;;;;;;355615;27;816;-67
2022/11/10 00:00:19;;;;;;;;;;;;;;;;;;355520;27;1000;-67
2022/11/10 00:00:30;;;;;;;;;;;;;;;;;;355600;27;824;-67
2022/11/10 00:00:40;;;;;;;;;;;;;;;;;;355580;27;848;-67
2022/11/10 00:00:50;;;;;;;;;;;;;;;;;;355553;27;944;-67
2022/11/10 00:01:07;;;;;;;;;;;;;;;;;;355580;27;1108;-67
2022/11/10 00:01:17;;;;;;;;;;;;;;;;;;355545;27;1282;-67
2022/11/10 00:01:28;;;;;;;;;;;;;;;;;;355496;27;872;-68
2022/11/10 00:01:38;;;;;;;;;;;;;;;;;;355525;27;892;-67
2022/11/10 00:01:48;;;;;;;;;;;;;;;;;;355544;27;965;-67
2022/11/10 00:01:58;;;;;;;;;;;;;;;;;;355545;27;837;-68
2022/11/10 00:02:08;;;;;;;;;;;;;;;;;;354544;27;2017;-67
2022/11/10 00:02:18;;;;;;;;;;;;;;;;;;354133;27;1914;-67
2022/11/10 00:02:29;;;;;;;;;;;;;;;;;;354108;27;971;-68
2022/11/10 00:02:42;;;;;;;;;;;;;;;;;;354165;27;868;-67
2022/11/10 00:02:52;;;;;;;;;;;;;;;;;;354119;27;995;-67
2022/11/10 00:03:03;;;;;;;;;;;;;;;;;;354052;27;1035;-67
2022/11/10 00:03:13;;;;;;;;;;;;;;;;;;354145;28;908;-67
2022/11/10 00:03:27;;;;;;;;;;;;;;;;;;354122;27;916;-68
2022/11/10 00:03:38;;;;;;;;;;;;;;;;;;354979;27;1381;-67
2022/11/10 00:03:49;;;;;;;;;;;;;;;;;;355493;27;936;-67
2022/11/10 00:03:59;;;;;;;;;;;;;;;;;;355523;27;859;-67
2022/11/10 00:04:09;;;;;;;;;;;;;;;;;;355589;27;944;-67
2022/11/10 00:04:19;;;;;;;;;;;;;;;;;;355544;27;916;-67
2022/11/10 00:04:29;;;;;;;;;;;;;;;;;;355295;27;1009;-67
2022/11/10 00:04:39;;;;;;;;;;;;;;;;;;355574;27;782;-67
2022/11/10 00:04:50;;;;;;;;;;;;;;;;;;355528;27;1027;-68
2022/11/10 00:05:00;;;;;;;;;;;;;;;;;;355572;27;805;-67
2022/11/10 00:05:10;;;;;;;;;;;;;;;;;;355600;27;939;-67
2022/11/10 00:05:21;;;;;;;;;;;;;;;;;;355598;27;908;-67
2022/11/10 00:05:31;;;;;;;;;;;;;;;;;;355525;27;959;-67
2022/11/10 00:05:41;;;;;;;;;;;;;;;;;;355637;27;864;-67
2022/11/10 00:05:51;;;;;;;;;;;;;;;;;;355468;27;917;-67
2022/11/10 00:06:03;;;;;;;;;;;;;;;;;;355528;27;837;-68
2022/11/10 00:06:13;;;;;;;;;;;;;;;;;;355543;27;991;-68
2022/11/10 00:06:23;;;;;;;;;;;;;;;;;;355641;27;940;-68
2022/11/10 00:06:33;;;;;;;;;;;;;;;;;;355587;27;1062;-67
2022/11/10 00:06:47;;;;;;;;;;;;;;;;;;355548;27;873;-68
2022/11/10 00:06:57;;;;;;;;;;;;;;;;;;355539;27;948;-68
2022/11/10 00:07:07;;;;;;;;;;;;;;;;;;355525;27;1126;-68
2022/11/10 00:07:17;;;;;;;;;;;;;;;;;;355531;27;928;-67
2022/11/10 00:07:27;;;;;;;;;;;;;;;;;;355597;27;908;-68
2022/11/10 00:07:38;;;;;;;;;;;;;;;;;;355613;27;829;-67
2022/11/10 00:07:48;;;;;;;;;;;;;;;;;;355551;27;1078;-67
2022/11/10 00:08:02;;;;;;;;;;;;;;;;;;355464;27;908;-67
2022/11/10 00:08:12;;;;;;;;;;;;;;;;;;355566;27;979;-67
2022/11/10 00:08:22;;;;;;;;;;;;;;;;;;355407;27;1122;-67
2022/11/10 00:08:33;;;;;;;;;;;;;;;;;;355537;27;1007;-67
2022/11/10 00:08:43;;;;;;;;;;;;;;;;;;355604;27;940;-68
2022/11/10 00:08:53;;;;;;;;;;;;;;;;;;355321;27;1025;-67
2022/11/10 00:09:03;;;;;;;;;;;;;;;;;;355335;27;990;-68
2022/11/10 00:09:14;;;;;;;;;;;;;;;;;;355550;27;968;-68
2022/11/10 00:09:24;;;;;;;;;;;;;;;;;;355577;27;940;-67
2022/11/10 00:09:34;;;;;;;;;;;;;;;;;;355628;27;861;-67
2022/11/10 00:09:44;;;;;;;;;;;;;;;;;;355590;27;998;-67
2022/11/10 00:09:55;;;;;;;;;;;;;;;;;;355461;27;971;-67
2022/11/10 00:10:05;;;;;;;;;;;;;;;;;;355576;27;912;-67
2022/11/10 00:10:16;;;;;;;;;;;;;;;;;;355532;27;984;-67
2022/11/10 00:10:26;;;;;;;;;;;;;;;;;;355620;27;794;-67
2022/11/10 00:10:56;;;;;;;;;;;;;;;;;;353883;27;2132;-67
2022/11/10 00:11:06;;;;;;;;;;;;;;;;;;353674;27;2141;-67
2022/11/10 00:11:17;;;;;;;;;;;;;;;;;;355044;27;841;-67
2022/11/10 00:11:27;;;;;;;;;;;;;;;;;;355573;27;928;-67
2022/11/10 00:11:37;;;;;;;;;;;;;;;;;;355566;27;905;-67
2022/11/10 00:11:47;;;;;;;;;;;;;;;;;;355532;27;1011;-67
2022/11/10 00:11:57;;;;;;;;;;;;;;;;;;355480;27;1902;-67
2022/11/10 00:12:08;;;;;;;;;;;;;;;;;;355445;27;1043;-67
2022/11/10 00:12:18;;;;;;;;;;;;;;;;;;355578;27;908;-67
2022/11/10 00:12:30;;;;;;;;;;;;;;;;;;355611;27;848;-67
2022/11/10 00:12:40;;;;;;;;;;;;;;;;;;355450;27;1241;-67
2022/11/10 00:12:51;;;;;;;;;;;;;;;;;;354124;28;916;-67
2022/11/10 00:13:01;;;;;;;;;;;;;;;;;;354861;27;1232;-67
2022/11/10 00:13:12;;;;;;;;;;;;;;;;;;355688;27;804;-67
2022/11/10 00:13:26;;;;;;;;;;;;;;;;;;355435;27;1756;-67
2022/11/10 00:16:59;;;;;;;;;;;;;;;;;;354269;27;841;-67
2022/11/10 00:17:08;;;;;;;;;;;;;;;;;;354061;28;1027;-67
2022/11/10 00:17:18;;;;;;;;;;;;;;;;;;354145;28;897;-68
2022/11/10 00:17:28;;;;;;;;;;;;;;;;;;354140;28;932;-67
2022/11/10 00:17:38;;;;;;;;;;;;;;;;;;354064;28;864;-67
2022/11/10 00:17:48;;;;;;;;;;;;;;;;;;354113;28;907;-67
2022/11/10 00:18:02;;;;;;;;;;;;;;;;;;354173;28;971;-67
2022/11/10 00:18:12;;;;;;;;;;;;;;;;;;354051;28;928;-67
2022/11/10 00:18:22;;;;;;;;;;;;;;;;;;354120;28;984;-67
2022/11/10 00:18:32;;;;;;;;;;;;;;;;;;354109;28;928;-67
2022/11/10 00:18:43;;;;;;;;;;;;;;;;;;354082;28;1109;-67
2022/11/10 00:18:53;;;;;;;;;;;;;;;;;;354167;28;943;-67
2022/11/10 00:19:03;;;;;;;;;;;;;;;;;;354129;28;900;-67
2022/11/10 00:19:13;;;;;;;;;;;;;;;;;;353873;28;1029;-67
2022/11/10 00:19:24;;;;;;;;;;;;;;;;;;354143;28;861;-67
2022/11/10 00:19:34;;;;;;;;;;;;;;;;;;354051;28;940;-67
2022/11/10 00:19:44;;;;;;;;;;;;;;;;;;354104;28;979;-67
2022/11/10 00:19:54;;;;;;;;;;;;;;;;;;354102;28;1016;-67
2022/11/10 00:20:05;;;;;;;;;;;;;;;;;;354111;28;967;-68
2022/11/10 00:20:15;;;;;;;;;;;;;;;;;;354051;28;979;-67
2022/11/10 00:20:25;;;;;;;;;;;;;;;;;;354083;28;853;-67
2022/11/10 00:20:35;;;;;;;;;;;;;;;;;;354160;28;913;-67
2022/11/10 00:20:45;;;;;;;;;;;;;;;;;;354035;28;1008;-67
2022/11/10 00:21:01;;;;;;;;;;;;;;;;;;354109;28;928;-67
2022/11/10 00:21:12;;;;;;;;;;;;;;;;;;354048;28;960;-67
2022/11/10 00:21:22;;;;;;;;;;;;;;;;;;354103;28;1020;-67
2022/11/10 00:21:32;;;;;;;;;;;;;;;;;;354168;28;817;-67
2022/11/10 00:21:43;;;;;;;;;;;;;;;;;;354135;28;928;-67
2022/11/10 00:21:53;;;;;;;;;;;;;;;;;;354203;28;904;-67
2022/11/10 00:22:03;;;;;;;;;;;;;;;;;;354059;28;1328;-68
2022/11/10 00:22:14;;;;;;;;;;;;;;;;;;353949;28;1130;-67
2022/11/10 00:22:24;;;;;;;;;;;;;;;;;;354138;28;988;-67
2022/11/10 00:22:35;;;;;;;;;;;;;;;;;;354079;28;995;-67
2022/11/10 00:22:45;;;;;;;;;;;;;;;;;;354132;28;940;-68
2022/11/10 00:22:55;;;;;;;;;;;;;;;;;;354112;28;1004;-68
2022/11/10 00:23:06;;;;;;;;;;;;;;;;;;354116;28;928;-67
2022/11/10 00:23:16;;;;;;;;;;;;;;;;;;354130;28;971;-67
2022/11/10 00:23:26;;;;;;;;;;;;;;;;;;353673;27;1685;-67
2022/11/10 00:23:36;;;;;;;;;;;;;;;;;;354183;27;1327;-68
2022/11/10 00:23:46;;;;;;;;;;;;;;;;;;355549;27;844;-67
2022/11/10 00:23:57;;;;;;;;;;;;;;;;;;355562;27;963;-67
2022/11/10 00:24:07;;;;;;;;;;;;;;;;;;355521;27;1067;-67
2022/11/10 00:24:17;;;;;;;;;;;;;;;;;;355523;27;971;-67
2022/11/10 00:24:28;;;;;;;;;;;;;;;;;;355618;27;904;-67
2022/11/10 00:24:38;;;;;;;;;;;;;;;;;;355436;27;1151;-67
2022/11/10 00:24:48;;;;;;;;;;;;;;;;;;355568;27;1174;-67
2022/11/10 00:24:59;;;;;;;;;;;;;;;;;;355571;27;1002;-67
2022/11/10 00:25:09;;;;;;;;;;;;;;;;;;355560;27;828;-67
2022/11/10 00:25:19;;;;;;;;;;;;;;;;;;355552;27;931;-67
2022/11/10 00:25:30;;;;;;;;;;;;;;;;;;354600;27;2013;-68
2022/11/10 00:25:40;;;;;;;;;;;;;;;;;;354268;27;1891;-68
2022/11/10 00:25:50;;;;;;;;;;;;;;;;;;355562;27;852;-67
2022/11/10 00:26:01;;;;;;;;;;;;;;;;;;354431;27;2065;-67
2022/11/10 00:26:12;;;;;;;;;;;;;;;;;;354368;27;1880;-67
2022/11/10 00:26:22;;;;;;;;;;;;;;;;;;355548;27;848;-67
2022/11/10 00:26:32;;;;;;;;;;;;;;;;;;355604;27;993;-67
2022/11/10 00:26:43;;;;;;;;;;;;;;;;;;355511;27;1071;-67
2022/11/10 00:26:54;;;;;;;;;;;;;;;;;;355538;27;784;-67
2022/11/10 00:27:04;;;;;;;;;;;;;;;;;;355554;27;920;-67
2022/11/10 00:27:14;;;;;;;;;;;;;;;;;;355585;27;825;-67
2022/11/10 00:27:24;;;;;;;;;;;;;;;;;;355502;27;971;-67
2022/11/10 00:27:34;;;;;;;;;;;;;;;;;;355554;27;948;-67
2022/11/10 00:27:44;;;;;;;;;;;;;;;;;;355542;27;879;-67
2022/11/10 00:27:56;;;;;;;;;;;;;;;;;;355531;27;944;-68
2022/11/10 00:28:06;;;;;;;;;;;;;;;;;;355595;27;919;-67
2022/11/10 00:28:17;;;;;;;;;;;;;;;;;;355540;27;829;-67
2022/11/10 00:28:28;;;;;;;;;;;;;;;;;;355524;27;924;-68
2022/11/10 00:28:39;;;;;;;;;;;;;;;;;;355608;27;786;-68
2022/11/10 00:28:49;;;;;;;;;;;;;;;;;;355512;27;911;-67
2022/11/10 00:28:59;;;;;;;;;;;;;;;;;;355547;27;915;-67
2022/11/10 00:29:10;;;;;;;;;;;;;;;;;;354569;27;2053;-67
2022/11/10 00:29:20;;;;;;;;;;;;;;;;;;355337;27;1003;-67
2022/11/10 00:29:30;;;;;;;;;;;;;;;;;;354419;27;967;-67
2022/11/10 00:29:40;;;;;;;;;;;;;;;;;;354426;27;968;-67
2022/11/10 00:29:51;;;;;;;;;;;;;;;;;;354468;27;889;-67
2022/11/10 00:30:01;;;;;;;;;;;;;;;;;;354386;27;987;-68
2022/11/10 00:30:12;;;;;;;;;;;;;;;;;;354441;27;955;-68
2022/11/10 00:30:22;;;;;;;;;;;;;;;;;;354393;27;837;-67
2022/11/10 00:30:32;;;;;;;;;;;;;;;;;;354403;27;912;-67
2022/11/10 00:30:42;;;;;;;;;;;;;;;;;;354414;27;911;-67
2022/11/10 00:30:52;;;;;;;;;;;;;;;;;;354366;27;1022;-67
2022/11/10 00:31:06;;;;;;;;;;;;;;;;;;354377;27;856;-67
2022/11/10 00:31:16;;;;;;;;;;;;;;;;;;354434;27;947;-67
2022/11/10 00:31:27;;;;;;;;;;;;;;;;;;354389;27;919;-68
2022/11/10 00:31:37;;;;;;;;;;;;;;;;;;354428;27;1083;-67
2022/11/10 00:31:48;;;;;;;;;;;;;;;;;;354424;27;970;-68
2022/11/10 00:31:58;;;;;;;;;;;;;;;;;;354341;27;1909;-67
2022/11/10 00:32:08;;;;;;;;;;;;;;;;;;354439;27;915;-68
2022/11/10 00:32:18;;;;;;;;;;;;;;;;;;354342;27;939;-68
2022/11/10 00:32:28;;;;;;;;;;;;;;;;;;354353;27;1078;-67
2022/11/10 00:32:39;;;;;;;;;;;;;;;;;;354435;27;899;-67
2022/11/10 00:32:49;;;;;;;;;;;;;;;;;;354422;27;924;-68
2022/11/10 00:32:59;;;;;;;;;;;;;;;;;;354387;27;940;-68
2022/11/10 00:33:09;;;;;;;;;;;;;;;;;;354369;27;932;-68
2022/11/10 00:33:19;;;;;;;;;;;;;;;;;;354408;27;1691;-67
2022/11/10 00:33:29;;;;;;;;;;;;;;;;;;353732;27;1947;-67
2022/11/10 00:33:42;;;;;;;;;;;;;;;;;;354723;27;935;-67
2022/11/10 00:33:52;;;;;;;;;;;;;;;;;;354448;27;978;-67
2022/11/10 00:34:02;;;;;;;;;;;;;;;;;;354389;27;836;-68
2022/11/10 00:34:14;;;;;;;;;;;;;;;;;;354454;27;929;-68
2022/11/10 00:34:24;;;;;;;;;;;;;;;;;;354428;27;915;-67
2022/11/10 00:34:34;;;;;;;;;;;;;;;;;;354198;27;2030;-67
2022/11/10 00:34:44;;;;;;;;;;;;;;;;;;355851;27;971;-68
2022/11/10 00:34:54;;;;;;;;;;;;;;;;;;355788;27;930;-68
2022/11/10 00:35:06;;;;;;;;;;;;;;;;;;355791;27;951;-67
2022/11/10 00:35:16;;;;;;;;;;;;;;;;;;354507;27;1389;-67
2022/11/10 00:35:26;;;;;;;;;;;;;;;;;;353751;27;1760;-67
2022/11/10 00:35:37;;;;;;;;;;;;;;;;;;354472;27;919;-67
2022/11/10 00:35:47;;;;;;;;;;;;;;;;;;354346;27;916;-68
2022/11/10 00:35:58;;;;;;;;;;;;;;;;;;354431;27;837;-68
2022/11/10 00:36:09;;;;;;;;;;;;;;;;;;354389;27;959;-67
2022/11/10 00:36:19;;;;;;;;;;;;;;;;;;354464;27;1002;-68
2022/11/10 00:36:29;;;;;;;;;;;;;;;;;;354392;27;924;-67
2022/11/10 00:36:40;;;;;;;;;;;;;;;;;;354362;27;825;-68
2022/11/10 00:36:50;;;;;;;;;;;;;;;;;;354399;27;983;-68
2022/11/10 00:37:00;;;;;;;;;;;;;;;;;;354399;27;927;-67
2022/11/10 00:37:10;;;;;;;;;;;;;;;;;;354416;27;978;-67
2022/11/10 00:37:21;;;;;;;;;;;;;;;;;;354456;27;819;-67
2022/11/10 00:37:31;;;;;;;;;;;;;;;;;;354321;27;955;-68
2022/11/10 00:37:41;;;;;;;;;;;;;;;;;;354420;27;892;-67
2022/11/10 00:37:51;;;;;;;;;;;;;;;;;;354417;27;1003;-67
2022/11/10 00:38:01;;;;;;;;;;;;;;;;;;354393;27;979;-68
2022/11/10 00:38:12;;;;;;;;;;;;;;;;;;354368;27;932;-68
2022/11/10 00:38:22;;;;;;;;;;;;;;;;;;354317;27;798;-68
2022/11/10 00:38:32;;;;;;;;;;;;;;;;;;354401;27;934;-68
2022/11/10 00:38:42;;;;;;;;;;;;;;;;;;354385;27;971;-68
2022/11/10 00:38:52;;;;;;;;;;;;;;;;;;354317;27;766;-68
2022/11/10 00:39:03;;;;;;;;;;;;;;;;;;354465;27;975;-68
2022/11/10 00:39:13;;;;;;;;;;;;;;;;;;354303;27;813;-68
2022/11/10 00:39:23;;;;;;;;;;;;;;;;;;354374;27;1046;-67
2022/11/10 00:39:34;;;;;;;;;;;;;;;;;;354383;27;979;-67
2022/11/10 00:39:44;;;;;;;;;;;;;;;;;;354400;27;1084;-67
2022/11/10 00:39:54;;;;;;;;;;;;;;;;;;354365;27;924;-67
2022/11/10 00:40:05;;;;;;;;;;;;;;;;;;354393;27;843;-68
2022/11/10 00:40:15;;;;;;;;;;;;;;;;;;354430;27;974;-67
2022/11/10 00:40:25;;;;;;;;;;;;;;;;;;354401;27;885;-67
2022/11/10 00:40:35;;;;;;;;;;;;;;;;;;353959;27;2014;-67
2022/11/10 00:40:46;;;;;;;;;;;;;;;;;;354352;27;1848;-67
2022/11/10 00:40:57;;;;;;;;;;;;;;;;;;354411;27;781;-68
2022/11/10 00:41:07;;;;;;;;;;;;;;;;;;354010;27;2171;-67
2022/11/10 00:41:18;;;;;;;;;;;;;;;;;;355375;27;940;-68
2022/11/10 00:41:28;;;;;;;;;;;;;;;;;;355776;27;935;-68
2022/11/10 00:41:38;;;;;;;;;;;;;;;;;;355786;27;998;-67
2022/11/10 00:41:48;;;;;;;;;;;;;;;;;;355790;27;900;-67
2022/11/10 00:41:58;;;;;;;;;;;;;;;;;;355859;27;1006;-68
2022/11/10 00:42:09;;;;;;;;;;;;;;;;;;355847;27;959;-67
2022/11/10 00:42:19;;;;;;;;;;;;;;;;;;355829;27;979;-67
2022/11/10 00:42:29;;;;;;;;;;;;;;;;;;354446;27;2022;-67
2022/11/10 00:42:39;;;;;;;;;;;;;;;;;;354374;27;881;-67
2022/11/10 00:42:50;;;;;;;;;;;;;;;;;;354402;27;963;-67
2022/11/10 00:43:00;;;;;;;;;;;;;;;;;;354404;27;920;-68
2022/11/10 00:43:10;;;;;;;;;;;;;;;;;;354401;27;1062;-68
2022/11/10 00:43:20;;;;;;;;;;;;;;;;;;354384;27;821;-67
2022/11/10 00:43:30;;;;;;;;;;;;;;;;;;354440;27;924;-68
2022/11/10 00:43:41;;;;;;;;;;;;;;;;;;353831;27;1978;-67
2022/11/10 00:43:51;;;;;;;;;;;;;;;;;;354386;27;904;-68
2022/11/10 00:44:01;;;;;;;;;;;;;;;;;;354418;27;1026;-68
2022/11/10 00:44:11;;;;;;;;;;;;;;;;;;354369;27;935;-67
2022/11/10 00:44:22;;;;;;;;;;;;;;;;;;354402;27;908;-68
2022/11/10 00:44:32;;;;;;;;;;;;;;;;;;354384;27;883;-67
2022/11/10 00:44:42;;;;;;;;;;;;;;;;;;354394;27;904;-67
2022/11/10 00:44:52;;;;;;;;;;;;;;;;;;354405;27;982;-68
2022/11/10 00:45:03;;;;;;;;;;;;;;;;;;354353;27;856;-67
2022/11/10 00:45:13;;;;;;;;;;;;;;;;;;354395;27;979;-68
2022/11/10 00:45:23;;;;;;;;;;;;;;;;;;354383;27;943;-67
2022/11/10 00:45:33;;;;;;;;;;;;;;;;;;353862;27;1983;-67
2022/11/10 00:45:45;;;;;;;;;;;;;;;;;;355689;27;979;-67
2022/11/10 00:45:55;;;;;;;;;;;;;;;;;;355770;27;944;-68
2022/11/10 00:46:05;;;;;;;;;;;;;;;;;;355863;27;809;-68
2022/11/10 00:46:16;;;;;;;;;;;;;;;;;;355837;27;927;-67
2022/11/10 00:46:26;;;;;;;;;;;;;;;;;;355826;27;892;-68
2022/11/10 00:46:36;;;;;;;;;;;;;;;;;;355744;27;1064;-68
2022/11/10 00:46:46;;;;;;;;;;;;;;;;;;355779;27;919;-68
2022/11/10 00:46:56;;;;;;;;;;;;;;;;;;355762;27;992;-67
2022/11/10 00:47:07;;;;;;;;;;;;;;;;;;355843;27;864;-68
2022/11/10 00:47:17;;;;;;;;;;;;;;;;;;355760;27;904;-68
2022/11/10 00:47:27;;;;;;;;;;;;;;;;;;355719;27;1054;-68
2022/11/10 00:47:37;;;;;;;;;;;;;;;;;;355888;27;967;-68
2022/11/10 00:47:47;;;;;;;;;;;;;;;;;;355770;27;1022;-67
2022/11/10 00:47:58;;;;;;;;;;;;;;;;;;355838;27;863;-68
2022/11/10 00:48:08;;;;;;;;;;;;;;;;;;355821;27;927;-67
2022/11/10 00:48:18;;;;;;;;;;;;;;;;;;355780;27;1036;-67
2022/11/10 00:48:28;;;;;;;;;;;;;;;;;;355835;27;800;-67
2022/11/10 00:48:38;;;;;;;;;;;;;;;;;;355842;27;852;-67
2022/11/10 00:48:49;;;;;;;;;;;;;;;;;;355761;27;935;-67
2022/11/10 00:48:59;;;;;;;;;;;;;;;;;;355880;27;773;-67
2022/11/10 00:49:09;;;;;;;;;;;;;;;;;;355809;27;923;-67
2022/11/10 00:49:19;;;;;;;;;;;;;;;;;;355818;27;947;-67
2022/11/10 00:49:29;;;;;;;;;;;;;;;;;;355752;27;919;-68
2022/11/10 00:49:40;;;;;;;;;;;;;;;;;;355821;27;919;-67
2022/11/10 00:49:50;;;;;;;;;;;;;;;;;;355813;27;904;-67
2022/11/10 00:50:00;;;;;;;;;;;;;;;;;;355614;27;1169;-67
2022/11/10 00:50:11;;;;;;;;;;;;;;;;;;354329;27;919;-67
2022/11/10 00:50:21;;;;;;;;;;;;;;;;;;354432;27;903;-67
2022/11/10 00:50:31;;;;;;;;;;;;;;;;;;354406;27;852;-67
2022/11/10 00:50:41;;;;;;;;;;;;;;;;;;354418;27;900;-67
2022/11/10 00:50:52;;;;;;;;;;;;;;;;;;354349;27;805;-68
2022/11/10 00:51:02;;;;;;;;;;;;;;;;;;354421;27;789;-67
2022/11/10 00:51:23;;;;;;;;;;;;;;;;;;354371;27;916;-67
2022/11/10 00:51:33;;;;;;;;;;;;;;;;;;352845;28;773;-68
2022/11/10 00:51:43;;;;;;;;;;;;;;;;;;352821;28;1042;-67
2022/11/10 00:51:53;;;;;;;;;;;;;;;;;;352830;28;1917;-67
2022/11/10 00:52:03;;;;;;;;;;;;;;;;;;352859;28;1019;-68
2022/11/10 00:52:14;;;;;;;;;;;;;;;;;;352864;28;1040;-67
2022/11/10 00:52:24;;;;;;;;;;;;;;;;;;352896;28;849;-67
2022/11/10 00:52:34;;;;;;;;;;;;;;;;;;352855;28;916;-67
2022/11/10 00:52:44;;;;;;;;;;;;;;;;;;352924;28;884;-67
2022/11/10 00:52:55;;;;;;;;;;;;;;;;;;352891;28;833;-67
2022/11/10 00:53:05;;;;;;;;;;;;;;;;;;352844;28;988;-67
2022/11/10 00:53:15;;;;;;;;;;;;;;;;;;352853;28;798;-67
2022/11/10 00:53:25;;;;;;;;;;;;;;;;;;353086;27;789;-68
2022/11/10 00:53:35;;;;;;;;;;;;;;;;;;354326;27;924;-67
2022/11/10 00:53:45;;;;;;;;;;;;;;;;;;353456;27;1998;-67
2022/11/10 00:53:56;;;;;;;;;;;;;;;;;;354385;27;824;-68
2022/11/10 00:54:06;;;;;;;;;;;;;;;;;;354347;27;1050;-67
2022/11/10 00:54:16;;;;;;;;;;;;;;;;;;354399;27;920;-68
2022/11/10 00:54:26;;;;;;;;;;;;;;;;;;354414;27;979;-67
2022/11/10 00:54:36;;;;;;;;;;;;;;;;;;354359;27;951;-68
2022/11/10 00:54:46;;;;;;;;;;;;;;;;;;354407;27;864;-67
2022/11/10 00:54:57;;;;;;;;;;;;;;;;;;354362;27;908;-67
2022/11/10 00:55:07;;;;;;;;;;;;;;;;;;354313;27;979;-68
2022/11/10 00:55:17;;;;;;;;;;;;;;;;;;354376;27;975;-67
2022/11/10 00:55:27;;;;;;;;;;;;;;;;;;354153;27;1955;-67
2022/11/10 00:55:38;;;;;;;;;;;;;;;;;;354206;27;1432;-67
2022/11/10 00:55:48;;;;;;;;;;;;;;;;;;355556;27;1021;-67
2022/11/10 00:55:59;;;;;;;;;;;;;;;;;;355050;27;2046;-67
2022/11/10 00:56:09;;;;;;;;;;;;;;;;;;354911;27;1639;-67
2022/11/10 00:56:20;;;;;;;;;;;;;;;;;;354405;27;927;-67
2022/11/10 00:56:30;;;;;;;;;;;;;;;;;;354380;27;998;-67
2022/11/10 00:56:40;;;;;;;;;;;;;;;;;;354352;27;1080;-67
2022/11/10 00:56:50;;;;;;;;;;;;;;;;;;354376;27;841;-67
2022/11/10 00:57:01;;;;;;;;;;;;;;;;;;354413;27;995;-68
2022/11/10 00:57:11;;;;;;;;;;;;;;;;;;354389;27;777;-68
2022/11/10 00:57:21;;;;;;;;;;;;;;;;;;354383;27;928;-68
2022/11/10 00:57:31;;;;;;;;;;;;;;;;;;354405;27;923;-68
2022/11/10 00:57:41;;;;;;;;;;;;;;;;;;354367;27;825;-68
2022/11/10 00:57:51;;;;;;;;;;;;;;;;;;354297;27;989;-68
2022/11/10 00:58:02;;;;;;;;;;;;;;;;;;354326;27;1015;-67
2022/11/10 00:58:12;;;;;;;;;;;;;;;;;;354143;27;1006;-68
2022/11/10 00:58:22;;;;;;;;;;;;;;;;;;354348;27;967;-68
2022/11/10 00:58:32;;;;;;;;;;;;;;;;;;354348;27;980;-68
2022/11/10 00:58:43;;;;;;;;;;;;;;;;;;354350;27;829;-68
2022/11/10 00:58:53;;;;;;;;;;;;;;;;;;354327;27;935;-68
2022/11/10 00:59:04;;;;;;;;;;;;;;;;;;354445;27;794;-68
2022/11/10 00:59:14;;;;;;;;;;;;;;;;;;353928;27;2065;-68
2022/11/10 00:59:24;;;;;;;;;;;;;;;;;;354938;27;1008;-67
2022/11/10 00:59:34;;;;;;;;;;;;;;;;;;355798;27;845;-68
2022/11/10 00:59:44;;;;;;;;;;;;;;;;;;355785;27;912;-67
2022/11/10 00:59:54;;;;;;;;;;;;;;;;;;355741;27;776;-68
2022/11/10 01:00:05;;;;;;;;;;;;;;;;;;355771;27;892;-68
2022/11/10 01:00:15;;;;;;;;;;;;;;;;;;355789;27;1006;-68
2022/11/10 01:00:25;;;;;;;;;;;;;;;;;;355855;27;915;-68
2022/11/10 01:00:36;;;;;;;;;;;;;;;;;;355608;27;1165;-68
2022/11/10 01:00:46;;;;;;;;;;;;;;;;;;355765;27;1017;-68
2022/11/10 01:01:01;;;;;;;;;;;;;;;;;;355817;27;816;-67
2022/11/10 01:01:11;;;;;;;;;;;;;;;;;;355772;27;871;-67
2022/11/10 01:01:23;;;;;;;;;;;;;;;;;;355806;27;982;-68
2022/11/10 01:01:33;;;;;;;;;;;;;;;;;;355818;27;947;-67
2022/11/10 01:01:43;;;;;;;;;;;;;;;;;;355813;27;903;-67
2022/11/10 01:01:53;;;;;;;;;;;;;;;;;;355811;27;793;-67
2022/11/10 01:02:04;;;;;;;;;;;;;;;;;;355563;27;1135;-67
2022/11/10 01:02:14;;;;;;;;;;;;;;;;;;355794;27;924;-68
2022/11/10 01:02:24;;;;;;;;;;;;;;;;;;355775;27;868;-68
2022/11/10 01:02:34;;;;;;;;;;;;;;;;;;355832;27;908;-67
2022/11/10 01:02:44;;;;;;;;;;;;;;;;;;355792;27;975;-68
2022/11/10 01:02:54;;;;;;;;;;;;;;;;;;355782;27;811;-67
2022/11/10 01:03:05;;;;;;;;;;;;;;;;;;355777;27;928;-68
2022/11/10 01:03:16;;;;;;;;;;;;;;;;;;354704;27;1799;-67
2022/11/10 01:03:27;;;;;;;;;;;;;;;;;;354348;27;983;-67
2022/11/10 01:03:37;;;;;;;;;;;;;;;;;;354425;27;897;-67
2022/11/10 01:03:47;;;;;;;;;;;;;;;;;;354379;27;1002;-68
2022/11/10 01:03:57;;;;;;;;;;;;;;;;;;354341;27;975;-68
2022/11/10 01:04:07;;;;;;;;;;;;;;;;;;354336;27;916;-67
2022/11/10 01:04:18;;;;;;;;;;;;;;;;;;354430;27;908;-68
2022/11/10 01:04:28;;;;;;;;;;;;;;;;;;354712;27;1753;-67
2022/11/10 01:04:38;;;;;;;;;;;;;;;;;;355836;27;924;-67
2022/11/10 01:04:48;;;;;;;;;;;;;;;;;;355840;27;868;-67
2022/11/10 01:04:59;;;;;;;;;;;;;;;;;;355770;27;899;-68
2022/11/10 01:05:09;;;;;;;;;;;;;;;;;;355787;27;912;-67
2022/11/10 01:05:19;;;;;;;;;;;;;;;;;;355784;27;975;-67
2022/11/10 01:05:30;;;;;;;;;;;;;;;;;;355830;27;987;-68
2022/11/10 01:05:40;;;;;;;;;;;;;;;;;;355816;27;956;-68
2022/11/10 01:05:50;;;;;;;;;;;;;;;;;;355816;27;963;-67
2022/11/10 01:06:07;;;;;;;;;;;;;;;;;;355767;27;793;-68
2022/11/10 01:06:19;;;;;;;;;;;;;;;;;;355624;27;1099;-67
2022/11/10 01:06:29;;;;;;;;;;;;;;;;;;355730;27;1039;-68
2022/11/10 01:06:39;;;;;;;;;;;;;;;;;;355925;27;853;-67
2022/11/10 01:06:51;;;;;;;;;;;;;;;;;;355764;27;1078;-67
2022/11/10 01:07:01;;;;;;;;;;;;;;;;;;355888;27;975;-67
2022/11/10 01:07:11;;;;;;;;;;;;;;;;;;355755;27;862;-67
2022/11/10 01:07:22;;;;;;;;;;;;;;;;;;355825;27;963;-67
2022/11/10 01:07:32;;;;;;;;;;;;;;;;;;355802;27;916;-68
2022/11/10 01:07:42;;;;;;;;;;;;;;;;;;355820;27;1040;-68
2022/11/10 01:07:52;;;;;;;;;;;;;;;;;;355801;27;928;-68
2022/11/10 01:08:02;;;;;;;;;;;;;;;;;;355739;27;880;-68
2022/11/10 01:08:13;;;;;;;;;;;;;;;;;;355847;27;1014;-68
2022/11/10 01:08:23;;;;;;;;;;;;;;;;;;355734;27;730;-68
2022/11/10 01:08:34;;;;;;;;;;;;;;;;;;355833;27;1011;-67
2022/11/10 01:08:44;;;;;;;;;;;;;;;;;;355846;27;845;-68
2022/11/10 01:08:55;;;;;;;;;;;;;;;;;;355817;27;986;-67
2022/11/10 01:09:05;;;;;;;;;;;;;;;;;;355757;27;1036;-67
2022/11/10 01:09:15;;;;;;;;;;;;;;;;;;355830;27;920;-67
2022/11/10 01:09:25;;;;;;;;;;;;;;;;;;355821;27;1033;-67
2022/11/10 01:09:36;;;;;;;;;;;;;;;;;;355758;27;924;-67
2022/11/10 01:09:46;;;;;;;;;;;;;;;;;;355815;27;924;-67
2022/11/10 01:09:57;;;;;;;;;;;;;;;;;;355765;27;780;-68
2022/11/10 01:10:07;;;;;;;;;;;;;;;;;;355784;27;833;-68
2022/11/10 01:10:17;;;;;;;;;;;;;;;;;;355779;27;852;-67
2022/11/10 01:10:27;;;;;;;;;;;;;;;;;;355535;27;2077;-67
2022/11/10 01:10:37;;;;;;;;;;;;;;;;;;354166;27;1456;-68
2022/11/10 01:10:48;;;;;;;;;;;;;;;;;;355413;27;1039;-68
2022/11/10 01:11:02;;;;;;;;;;;;;;;;;;355207;27;2062;-67
2022/11/10 01:11:14;;;;;;;;;;;;;;;;;;355222;27;899;-67
2022/11/10 01:11:25;;;;;;;;;;;;;;;;;;354396;27;1022;-67
2022/11/10 01:11:36;;;;;;;;;;;;;;;;;;354425;27;785;-67
2022/11/10 01:11:46;;;;;;;;;;;;;;;;;;354382;27;920;-67
2022/11/10 01:11:56;;;;;;;;;;;;;;;;;;354225;27;1905;-67
2022/11/10 01:12:06;;;;;;;;;;;;;;;;;;354419;27;964;-68
2022/11/10 01:12:16;;;;;;;;;;;;;;;;;;354345;27;933;-67
2022/11/10 01:12:27;;;;;;;;;;;;;;;;;;354287;27;1035;-68
2022/11/10 01:12:38;;;;;;;;;;;;;;;;;;354311;27;789;-68
2022/11/10 01:12:48;;;;;;;;;;;;;;;;;;355454;27;1198;-67
2022/11/10 01:12:58;;;;;;;;;;;;;;;;;;355327;27;1240;-67
2022/11/10 01:13:09;;;;;;;;;;;;;;;;;;354397;27;778;-68
2022/11/10 01:13:19;;;;;;;;;;;;;;;;;;353961;27;1808;-67
2022/11/10 01:13:29;;;;;;;;;;;;;;;;;;354395;27;825;-67
2022/11/10 01:13:40;;;;;;;;;;;;;;;;;;354360;27;928;-67
2022/11/10 01:13:51;;;;;;;;;;;;;;;;;;354406;27;951;-67
2022/11/10 01:14:01;;;;;;;;;;;;;;;;;;354329;27;916;-67
2022/11/10 01:14:11;;;;;;;;;;;;;;;;;;354372;27;951;-67
2022/11/10 01:14:22;;;;;;;;;;;;;;;;;;354358;27;774;-68
2022/11/10 01:14:32;;;;;;;;;;;;;;;;;;354333;27;983;-68
2022/11/10 01:14:42;;;;;;;;;;;;;;;;;;354346;27;828;-67
2022/11/10 01:14:52;;;;;;;;;;;;;;;;;;354383;27;908;-68
2022/11/10 01:15:03;;;;;;;;;;;;;;;;;;354375;27;904;-68
2022/11/10 01:15:13;;;;;;;;;;;;;;;;;;354351;27;987;-67
2022/11/10 01:15:24;;;;;;;;;;;;;;;;;;354378;27;890;-68
2022/11/10 01:15:37;;;;;;;;;;;;;;;;;;354333;27;1431;-67
2022/11/10 01:15:47;;;;;;;;;;;;;;;;;;354420;27;918;-68
2022/11/10 01:16:05;;;;;;;;;;;;;;;;;;354373;27;920;-67
2022/11/10 01:16:18;;;;;;;;;;;;;;;;;;355525;27;1216;-68
2022/11/10 01:16:29;;;;;;;;;;;;;;;;;;355823;27;832;-67
2022/11/10 01:16:40;;;;;;;;;;;;;;;;;;355743;27;904;-67
2022/11/10 01:16:50;;;;;;;;;;;;;;;;;;355824;27;769;-67
2022/11/10 01:17:00;;;;;;;;;;;;;;;;;;355722;27;959;-68
2022/11/10 01:17:10;;;;;;;;;;;;;;;;;;355770;27;1051;-67
2022/11/10 01:17:20;;;;;;;;;;;;;;;;;;355731;27;887;-68
2022/11/10 01:17:31;;;;;;;;;;;;;;;;;;355779;27;956;-68
2022/11/10 01:17:41;;;;;;;;;;;;;;;;;;355789;27;844;-67
2022/11/10 01:17:52;;;;;;;;;;;;;;;;;;355784;27;967;-67
2022/11/10 01:18:03;;;;;;;;;;;;;;;;;;355788;27;1159;-68
2022/11/10 01:18:13;;;;;;;;;;;;;;;;;;355810;27;908;-68
2022/11/10 01:18:23;;;;;;;;;;;;;;;;;;355739;27;928;-68
2022/11/10 01:18:34;;;;;;;;;;;;;;;;;;355765;27;1074;-68
2022/11/10 01:18:48;;;;;;;;;;;;;;;;;;355787;27;932;-68
2022/11/10 01:18:59;;;;;;;;;;;;;;;;;;355795;27;927;-67